Time;durP1;ratioP1;P1;durP2;ratioP2;P2;SDS_P1;SDS_P2;PMS_P1;PMS_P2;Temp;Humidity;BMP_temperature;BMP_pressure;BME280_temperature;BME280_humidity;BME280_pressure;Samples;Min_cycle;Max_cycle;Signal;HPM_P1;HPM_P2
2022/01/07 00:00:47;;;;;;;11.07;6.93;;;-1.00;99.90;;;;;;2113198;28;20026;-71
2022/01/07 00:01:47;;;;;;;10.32;6.63;;;-1.00;99.90;;;;;;2121483;28;20083;-72
2022/01/07 00:02:51;;;;;;;11.63;6.63;;;-1.00;99.90;;;;;;2114972;28;20320;-72
2022/01/07 00:03:52;;;;;;;10.95;6.60;;;-1.00;99.90;;;;;;2113131;28;20525;-71
2022/01/07 00:04:53;;;;;;;10.75;6.63;;;-1.00;99.90;;;;;;2114249;28;20027;-71
2022/01/07 00:05:54;;;;;;;11.50;6.40;;;-1.00;99.90;;;;;;2114119;28;20099;-72
2022/01/07 00:06:55;;;;;;;11.02;6.15;;;-1.00;99.90;;;;;;2113990;28;20439;-70
2022/01/07 00:07:56;;;;;;;10.05;6.07;;;-1.00;99.90;;;;;;2114740;28;20020;-74
2022/01/07 00:08:57;;;;;;;9.55;6.22;;;-1.00;99.90;;;;;;2113457;28;20039;-73
2022/01/07 00:09:58;;;;;;;12.02;6.38;;;-1.00;99.90;;;;;;2113981;28;20048;-70
2022/01/07 00:10:59;;;;;;;9.15;5.95;;;-1.00;99.90;;;;;;2115080;28;20133;-71
2022/01/07 00:12:00;;;;;;;9.63;5.90;;;-1.00;99.90;;;;;;2113966;28;20020;-70
2022/01/07 00:13:01;;;;;;;11.18;6.50;;;-1.00;99.90;;;;;;2114257;28;20108;-70
2022/01/07 00:14:02;;;;;;;9.50;5.93;;;-1.00;99.90;;;;;;2115687;28;20015;-71
2022/01/07 00:15:05;;;;;;;10.50;6.28;;;-1.10;99.90;;;;;;2113611;28;20069;-70
2022/01/07 00:16:07;;;;;;;11.93;6.28;;;-1.10;99.90;;;;;;2121604;27;20110;-72
2022/01/07 00:17:07;;;;;;;9.70;5.88;;;-1.10;99.90;;;;;;2106844;28;20054;-73
2022/01/07 00:18:08;;;;;;;10.85;5.93;;;-1.10;99.90;;;;;;2096845;28;20097;-71
2022/01/07 00:19:09;;;;;;;10.60;5.72;;;-1.10;99.90;;;;;;2097348;28;20083;-70
2022/01/07 00:20:13;;;;;;;11.75;6.03;;;-1.10;99.90;;;;;;2106209;28;20079;-70
2022/01/07 00:21:14;;;;;;;9.38;6.25;;;-1.10;99.90;;;;;;2113928;28;20042;-71
2022/01/07 00:22:15;;;;;;;9.38;5.88;;;-1.00;99.90;;;;;;2121756;27;20110;-72
2022/01/07 00:23:15;;;;;;;9.63;6.22;;;-1.10;99.90;;;;;;2114794;28;20038;-71
2022/01/07 00:24:16;;;;;;;9.35;5.95;;;-1.10;99.90;;;;;;2104923;28;20031;-72
2022/01/07 00:25:18;;;;;;;11.52;6.50;;;-1.10;99.90;;;;;;2097011;28;20545;-72
2022/01/07 00:26:19;;;;;;;9.65;5.70;;;-1.10;99.90;;;;;;2108926;28;20028;-71
2022/01/07 00:27:19;;;;;;;8.38;5.55;;;-1.10;99.90;;;;;;2113682;28;20039;-72
2022/01/07 00:28:20;;;;;;;10.50;6.20;;;-1.10;99.90;;;;;;2113509;28;20024;-72
2022/01/07 00:29:21;;;;;;;10.82;6.00;;;-1.10;99.90;;;;;;2114959;28;20045;-71
2022/01/07 00:30:22;;;;;;;10.52;5.75;;;-1.10;99.90;;;;;;2114346;28;20228;-70
2022/01/07 00:31:23;;;;;;;11.35;6.28;;;-1.10;99.90;;;;;;2113222;28;20088;-70
2022/01/07 00:32:24;;;;;;;11.07;6.30;;;-1.10;99.90;;;;;;2115245;28;20433;-70
2022/01/07 00:33:24;;;;;;;12.73;6.63;;;-1.10;99.90;;;;;;2123946;28;20118;-71
2022/01/07 00:34:25;;;;;;;13.80;6.70;;;-1.10;99.90;;;;;;2120373;27;20031;-71
2022/01/07 00:35:26;;;;;;;13.13;6.75;;;-1.10;99.90;;;;;;2111019;28;20023;-71
2022/01/07 00:36:27;;;;;;;12.25;6.38;;;-1.20;99.90;;;;;;2114231;28;20047;-71
2022/01/07 00:37:28;;;;;;;12.70;6.60;;;-1.20;99.90;;;;;;2114958;28;20024;-71
2022/01/07 00:38:30;;;;;;;12.20;6.13;;;-1.20;99.90;;;;;;2111352;28;20084;-72
2022/01/07 00:39:31;;;;;;;12.20;6.55;;;-1.20;99.90;;;;;;2109252;28;20039;-70
2022/01/07 00:40:35;;;;;;;14.13;6.80;;;-1.20;99.90;;;;;;2113684;28;20513;-70
2022/01/07 00:41:36;;;;;;;15.18;7.00;;;-1.10;99.90;;;;;;2114842;28;20102;-71
2022/01/07 00:42:37;;;;;;;12.73;6.93;;;-1.20;99.90;;;;;;2115175;28;20453;-70
2022/01/07 00:43:37;;;;;;;12.85;6.57;;;-1.20;99.90;;;;;;2115400;28;20118;-70
2022/01/07 00:44:38;;;;;;;13.60;6.50;;;-1.20;99.90;;;;;;2115169;28;20032;-69
2022/01/07 00:45:39;;;;;;;13.98;7.20;;;-1.20;99.90;;;;;;2115491;27;20035;-70
2022/01/07 00:46:39;;;;;;;14.05;7.07;;;-1.20;99.90;;;;;;2114609;28;20086;-70
2022/01/07 00:47:40;;;;;;;13.65;7.40;;;-1.20;99.90;;;;;;2106363;28;20032;-70
2022/01/07 00:48:41;;;;;;;12.32;6.95;;;-1.20;99.90;;;;;;2105485;28;20055;-71
2022/01/07 00:49:41;;;;;;;15.90;7.88;;;-1.20;99.90;;;;;;2114781;28;20109;-71
2022/01/07 00:50:42;;;;;;;16.13;7.93;;;-1.20;99.90;;;;;;2122891;27;20363;-70
2022/01/07 00:51:43;;;;;;;14.32;7.50;;;-1.20;99.90;;;;;;2115169;28;20045;-70
2022/01/07 00:52:43;;;;;;;15.80;7.68;;;-1.20;99.90;;;;;;2115292;28;20474;-71
2022/01/07 00:53:44;;;;;;;16.17;7.60;;;-1.20;99.90;;;;;;2115152;28;20027;-70
2022/01/07 00:54:45;;;;;;;15.60;7.88;;;-1.20;99.90;;;;;;2115076;28;20019;-70
2022/01/07 00:55:45;;;;;;;18.00;7.85;;;-1.20;99.90;;;;;;2115291;28;20084;-70
2022/01/07 00:56:46;;;;;;;13.45;6.75;;;-1.20;99.90;;;;;;2122861;27;20402;-71
2022/01/07 00:57:48;;;;;;;13.20;6.85;;;-1.20;99.90;;;;;;2123068;27;20023;-70
2022/01/07 00:58:48;;;;;;;15.10;6.78;;;-1.20;99.90;;;;;;2114196;28;20512;-69
2022/01/07 00:59:52;;;;;;;13.00;6.13;;;-1.20;99.90;;;;;;2115113;28;20111;-71
2022/01/07 01:00:52;;;;;;;12.15;5.53;;;-1.20;99.90;;;;;;2122942;27;20065;-70
2022/01/07 01:01:53;;;;;;;11.15;6.00;;;-1.20;99.90;;;;;;2122512;27;20019;-71
2022/01/07 01:02:55;;;;;;;11.85;6.40;;;-1.10;99.90;;;;;;2114012;28;20562;-71
2022/01/07 01:03:56;;;;;;;11.77;6.35;;;-1.20;99.90;;;;;;2113999;28;20128;-70
2022/01/07 01:04:56;;;;;;;15.68;7.22;;;-1.10;99.90;;;;;;2114496;28;20024;-71
2022/01/07 01:05:58;;;;;;;16.73;8.02;;;-1.20;99.90;;;;;;2114205;28;20092;-71
2022/01/07 01:06:59;;;;;;;17.05;8.27;;;-1.20;99.90;;;;;;2114927;28;20020;-70
2022/01/07 01:07:59;;;;;;;17.23;8.38;;;-1.20;99.90;;;;;;2114889;28;20062;-70
2022/01/07 01:09:00;;;;;;;13.70;7.78;;;-1.20;99.90;;;;;;2113721;28;20023;-71
2022/01/07 01:10:05;;;;;;;13.07;6.90;;;-1.20;99.90;;;;;;2105741;28;20127;-70
2022/01/07 01:11:06;;;;;;;11.55;6.35;;;-1.20;99.90;;;;;;2114334;28;20086;-70
2022/01/07 01:12:07;;;;;;;12.48;6.10;;;-1.20;99.90;;;;;;2114774;28;20051;-70
2022/01/07 01:13:09;;;;;;;11.70;5.95;;;-1.20;99.90;;;;;;2114166;28;20038;-71
2022/01/07 01:14:09;;;;;;;9.10;5.43;;;-1.30;99.90;;;;;;2114398;28;20133;-71
2022/01/07 01:15:12;;;;;;;10.10;5.20;;;-1.30;99.90;;;;;;2113981;28;20024;-70
2022/01/07 01:16:13;;;;;;;11.20;5.13;;;-1.20;99.90;;;;;;2122384;27;20027;-70
2022/01/07 01:17:14;;;;;;;9.80;4.90;;;-1.30;99.90;;;;;;2122554;27;20033;-70
2022/01/07 01:18:15;;;;;;;10.38;4.90;;;-1.30;99.90;;;;;;2122527;27;20505;-71
2022/01/07 01:19:15;;;;;;;7.97;4.60;;;-1.30;99.90;;;;;;2114382;28;20028;-71
2022/01/07 01:20:16;;;;;;;7.25;4.45;;;-1.30;99.90;;;;;;2115046;28;20090;-70
2022/01/07 01:21:17;;;;;;;8.48;4.40;;;-1.30;99.90;;;;;;2114570;28;20063;-70
2022/01/07 01:22:17;;;;;;;8.68;4.55;;;-1.30;99.90;;;;;;2105690;28;20404;-71
2022/01/07 01:23:18;;;;;;;9.10;4.10;;;-1.20;99.90;;;;;;2114207;28;20028;-70
2022/01/07 01:24:19;;;;;;;7.40;4.32;;;-1.20;99.90;;;;;;2114144;28;20124;-71
2022/01/07 01:25:19;;;;;;;7.18;4.18;;;-1.20;99.90;;;;;;2114605;28;20032;-71
2022/01/07 01:26:20;;;;;;;7.65;4.35;;;-1.30;99.90;;;;;;2114389;28;20084;-70
2022/01/07 01:27:21;;;;;;;7.43;4.43;;;-1.30;99.90;;;;;;2113936;28;20172;-70
2022/01/07 01:28:21;;;;;;;9.00;4.55;;;-1.30;99.90;;;;;;2113961;28;20067;-71
2022/01/07 01:29:22;;;;;;;7.10;4.30;;;-1.30;99.90;;;;;;2114095;28;20039;-71
2022/01/07 01:30:28;;;;;;;8.77;4.28;;;-1.30;99.90;;;;;;2114546;28;20368;-70
2022/01/07 01:31:30;;;;;;;8.10;4.53;;;-1.30;99.90;;;;;;2122255;27;20050;-71
2022/01/07 01:32:31;;;;;;;9.55;4.55;;;-1.30;99.90;;;;;;2122377;27;20031;-70
2022/01/07 01:33:32;;;;;;;9.20;4.40;;;-1.30;99.90;;;;;;2114647;28;20130;-70
2022/01/07 01:34:33;;;;;;;7.97;4.22;;;-1.30;99.90;;;;;;2122541;27;20159;-70
2022/01/07 01:35:37;;;;;;;9.45;4.60;;;-1.30;99.90;;;;;;2122608;27;20026;-71
2022/01/07 01:36:37;;;;;;;8.77;4.57;;;-1.30;99.90;;;;;;2113977;28;20020;-71
2022/01/07 01:37:38;;;;;;;8.35;4.40;;;-1.30;99.90;;;;;;2114199;28;20031;-71
2022/01/07 01:38:39;;;;;;;8.10;4.38;;;-1.30;99.90;;;;;;2114166;27;20106;-70
2022/01/07 01:39:40;;;;;;;8.57;4.50;;;-1.30;99.90;;;;;;2114542;28;20040;-70
2022/01/07 01:40:40;;;;;;;6.53;3.75;;;-1.30;99.90;;;;;;2113821;28;20031;-71
2022/01/07 01:41:42;;;;;;;7.30;4.25;;;-1.30;99.90;;;;;;2113568;28;20040;-71
2022/01/07 01:42:43;;;;;;;5.95;4.03;;;-1.30;99.90;;;;;;2114556;28;20081;-71
2022/01/07 01:43:45;;;;;;;6.88;3.88;;;-1.20;99.90;;;;;;2114409;28;20176;-71
2022/01/07 01:44:45;;;;;;;8.80;4.30;;;-1.30;99.90;;;;;;2114465;28;20069;-70
2022/01/07 01:45:46;;;;;;;7.47;4.03;;;-1.30;99.90;;;;;;2114453;28;20020;-70
2022/01/07 01:46:47;;;;;;;6.70;3.90;;;-1.20;99.90;;;;;;2114291;28;20016;-71
2022/01/07 01:47:47;;;;;;;9.77;4.18;;;-1.20;99.90;;;;;;2114442;28;20032;-71
2022/01/07 01:48:48;;;;;;;5.45;3.55;;;-1.20;99.90;;;;;;2113915;28;20031;-70
2022/01/07 01:49:49;;;;;;;6.63;3.70;;;-1.20;99.90;;;;;;2114339;28;20028;-70
2022/01/07 01:50:51;;;;;;;6.15;3.70;;;-1.20;99.90;;;;;;2122068;27;20102;-71
2022/01/07 01:51:52;;;;;;;6.88;3.60;;;-1.20;99.90;;;;;;2121717;27;20498;-70
2022/01/07 01:52:56;;;;;;;6.45;3.70;;;-1.20;99.90;;;;;;2114040;28;20046;-70
2022/01/07 01:53:57;;;;;;;7.85;3.60;;;-1.20;99.90;;;;;;2114567;28;20020;-70
2022/01/07 01:54:57;;;;;;;7.45;4.03;;;-1.20;99.90;;;;;;2114501;28;20062;-70
2022/01/07 01:55:58;;;;;;;6.90;3.70;;;-1.20;99.90;;;;;;2114436;27;20066;-70
2022/01/07 01:56:58;;;;;;;7.00;3.90;;;-1.20;99.90;;;;;;2114764;28;20036;-70
2022/01/07 01:57:59;;;;;;;6.85;3.78;;;-1.20;99.90;;;;;;2113825;28;20133;-70
2022/01/07 01:59:00;;;;;;;9.95;4.10;;;-1.20;99.90;;;;;;2113192;28;20805;-71
2022/01/07 02:00:01;;;;;;;7.00;3.80;;;-1.20;99.90;;;;;;2105588;28;20085;-70
2022/01/07 02:01:02;;;;;;;8.18;3.90;;;-1.20;99.90;;;;;;2113847;28;20023;-70
2022/01/07 02:02:03;;;;;;;7.10;3.70;;;-1.20;99.90;;;;;;2114025;28;20042;-71
2022/01/07 02:03:05;;;;;;;7.88;3.50;;;-1.20;99.90;;;;;;2114243;28;20032;-70
2022/01/07 02:04:05;;;;;;;6.97;3.85;;;-1.20;99.90;;;;;;2114239;28;20127;-71
2022/01/07 02:05:06;;;;;;;6.78;3.78;;;-1.20;99.90;;;;;;2114331;28;20027;-71
2022/01/07 02:06:07;;;;;;;8.30;3.78;;;-1.20;99.90;;;;;;2114153;28;20035;-71
2022/01/07 02:07:11;;;;;;;7.38;3.83;;;-1.20;99.90;;;;;;2113474;28;20086;-71
2022/01/07 02:08:12;;;;;;;6.57;3.75;;;-1.20;99.90;;;;;;2105722;28;20076;-70
2022/01/07 02:09:13;;;;;;;7.00;3.58;;;-1.20;99.90;;;;;;2113207;28;20027;-72
2022/01/07 02:10:16;;;;;;;6.53;3.58;;;-1.20;99.90;;;;;;2114404;28;20552;-71
2022/01/07 02:11:17;;;;;;;5.82;3.42;;;-1.20;99.90;;;;;;2113675;28;20423;-71
2022/01/07 02:12:17;;;;;;;5.40;3.40;;;-1.20;99.90;;;;;;2113319;28;20134;-71
2022/01/07 02:13:18;;;;;;;8.00;3.80;;;-1.20;99.90;;;;;;2113466;28;20028;-71
2022/01/07 02:14:19;;;;;;;7.45;3.80;;;-1.20;99.90;;;;;;2105199;28;20031;-70
2022/01/07 02:15:20;;;;;;;6.78;3.60;;;-1.20;99.90;;;;;;2105121;28;20039;-72
2022/01/07 02:16:24;;;;;;;7.40;4.00;;;-1.20;99.90;;;;;;2113578;28;20028;-72
2022/01/07 02:17:26;;;;;;;7.35;3.95;;;-1.20;99.90;;;;;;2113623;28;20032;-71
2022/01/07 02:18:27;;;;;;;7.55;3.70;;;-1.20;99.90;;;;;;2113625;28;20430;-71
2022/01/07 02:19:30;;;;;;;6.75;3.70;;;-1.20;99.90;;;;;;2113637;28;20031;-71
2022/01/07 02:20:31;;;;;;;6.43;3.80;;;-1.20;99.90;;;;;;2114336;28;20122;-70
2022/01/07 02:21:36;;;;;;;7.40;3.47;;;-1.20;99.90;;;;;;2121722;27;20034;-71
2022/01/07 02:22:37;;;;;;;7.80;3.80;;;-1.20;99.90;;;;;;2113596;28;20118;-71
2022/01/07 02:23:37;;;;;;;7.63;3.55;;;-1.20;99.90;;;;;;2113422;28;20076;-71
2022/01/07 02:24:38;;;;;;;5.38;3.40;;;-1.20;99.90;;;;;;2113986;28;20036;-70
2022/01/07 02:25:39;;;;;;;5.60;3.30;;;-1.20;99.90;;;;;;2114097;28;20032;-70
2022/01/07 02:26:40;;;;;;;6.70;3.80;;;-1.20;99.90;;;;;;2113660;28;20450;-70
2022/01/07 02:27:44;;;;;;;7.20;3.60;;;-1.20;99.90;;;;;;2113483;28;20685;-71
2022/01/07 02:28:45;;;;;;;6.18;3.40;;;-1.30;99.90;;;;;;2113633;28;20482;-70
2022/01/07 02:29:49;;;;;;;5.97;3.50;;;-1.30;99.90;;;;;;2114274;28;20154;-70
2022/01/07 02:30:50;;;;;;;5.95;3.35;;;-1.30;99.90;;;;;;2113383;28;20036;-71
2022/01/07 02:31:50;;;;;;;5.70;3.25;;;-1.30;99.90;;;;;;2113203;28;20027;-71
2022/01/07 02:32:51;;;;;;;4.45;3.20;;;-1.30;99.90;;;;;;2122169;27;20031;-71
2022/01/07 02:33:53;;;;;;;5.30;3.30;;;-1.30;99.90;;;;;;2113249;28;20055;-71
2022/01/07 02:34:53;;;;;;;6.32;3.13;;;-1.30;99.90;;;;;;2113698;28;20028;-70
2022/01/07 02:35:54;;;;;;;7.07;3.40;;;-1.30;99.90;;;;;;2113485;28;20483;-71
2022/01/07 02:36:55;;;;;;;6.43;3.10;;;-1.30;99.90;;;;;;2113844;28;20050;-71
2022/01/07 02:37:55;;;;;;;6.05;2.85;;;-1.30;99.90;;;;;;2114354;28;20031;-71
2022/01/07 02:38:56;;;;;;;5.80;3.08;;;-1.30;99.90;;;;;;2113662;28;20670;-70
2022/01/07 02:39:57;;;;;;;6.47;3.25;;;-1.30;99.90;;;;;;2114164;28;20034;-70
2022/01/07 02:40:58;;;;;;;4.47;2.88;;;-1.30;99.90;;;;;;2113611;28;20054;-71
2022/01/07 02:41:58;;;;;;;5.43;2.85;;;-1.30;99.90;;;;;;2113427;28;20015;-72
2022/01/07 02:42:59;;;;;;;6.78;3.00;;;-1.30;99.90;;;;;;2114022;28;20429;-72
2022/01/07 02:44:00;;;;;;;6.25;3.10;;;-1.30;99.90;;;;;;2114142;28;20068;-71
2022/01/07 02:45:01;;;;;;;6.00;3.20;;;-1.30;99.90;;;;;;2121975;27;20073;-70
2022/01/07 02:46:03;;;;;;;5.55;3.20;;;-1.30;99.90;;;;;;2121905;27;20478;-70
2022/01/07 02:47:04;;;;;;;6.05;3.15;;;-1.30;99.90;;;;;;2113961;28;20120;-70
2022/01/07 02:48:04;;;;;;;6.75;3.28;;;-1.30;99.90;;;;;;2114067;27;20028;-71
2022/01/07 02:49:10;;;;;;;6.18;2.75;;;-1.30;99.90;;;;;;2113361;28;20468;-71
2022/01/07 02:50:11;;;;;;;4.50;2.90;;;-1.30;99.90;;;;;;2113949;28;20024;-71
2022/01/07 02:51:11;;;;;;;5.60;2.80;;;-1.30;99.90;;;;;;2114051;27;20039;-72
2022/01/07 02:52:12;;;;;;;5.60;2.90;;;-1.30;99.90;;;;;;2121544;27;20088;-72
2022/01/07 02:53:12;;;;;;;7.40;3.20;;;-1.30;99.90;;;;;;2121667;27;20147;-71
2022/01/07 02:54:14;;;;;;;8.35;3.08;;;-1.30;99.90;;;;;;2121665;27;20042;-71
2022/01/07 02:55:14;;;;;;;5.22;2.78;;;-1.30;99.90;;;;;;2121760;27;20035;-73
2022/01/07 02:56:16;;;;;;;5.13;2.65;;;-1.30;99.90;;;;;;2121737;27;20057;-72
2022/01/07 02:57:16;;;;;;;6.97;3.05;;;-1.30;99.90;;;;;;2113335;28;20031;-73
2022/01/07 02:58:17;;;;;;;4.88;3.00;;;-1.30;99.90;;;;;;2113388;28;20088;-71
2022/01/07 02:59:18;;;;;;;5.45;3.00;;;-1.30;99.90;;;;;;2112795;28;20102;-71
2022/01/07 03:00:21;;;;;;;5.30;3.05;;;-1.30;99.90;;;;;;2113774;28;20028;-70
2022/01/07 03:01:22;;;;;;;5.53;3.08;;;-1.30;99.90;;;;;;2113148;28;20032;-69
2022/01/07 03:02:22;;;;;;;7.63;3.78;;;-1.30;99.90;;;;;;2113050;28;20729;-70
2022/01/07 03:03:23;;;;;;;8.05;3.63;;;-1.30;99.90;;;;;;2113949;28;20044;-72
2022/01/07 03:04:26;;;;;;;7.22;3.40;;;-1.30;99.90;;;;;;2113517;28;20096;-71
2022/01/07 03:05:27;;;;;;;7.50;3.65;;;-1.30;99.90;;;;;;2113773;28;20597;-73
2022/01/07 03:06:28;;;;;;;8.05;3.80;;;-1.30;99.90;;;;;;2114413;28;20085;-73
2022/01/07 03:07:29;;;;;;;9.80;4.45;;;-1.30;99.90;;;;;;2114983;28;20031;-73
2022/01/07 03:08:29;;;;;;;10.18;4.50;;;-1.30;99.90;;;;;;2114603;28;20066;-72
2022/01/07 03:09:30;;;;;;;14.38;5.10;;;-1.40;99.90;;;;;;2122152;27;20098;-72
2022/01/07 03:10:31;;;;;;;12.80;5.43;;;-1.40;99.90;;;;;;2114800;28;20055;-72
2022/01/07 03:11:31;;;;;;;12.20;5.53;;;-1.40;99.90;;;;;;2114530;28;20024;-71
2022/01/07 03:12:33;;;;;;;11.60;5.22;;;-1.40;99.90;;;;;;2114899;28;20491;-73
2022/01/07 03:13:33;;;;;;;12.63;5.40;;;-1.40;99.90;;;;;;2113941;28;20050;-72
2022/01/07 03:14:34;;;;;;;12.27;5.55;;;-1.40;99.90;;;;;;2113876;28;20754;-71
2022/01/07 03:15:37;;;;;;;9.38;4.95;;;-1.40;99.90;;;;;;2113853;28;20039;-71
2022/01/07 03:16:41;;;;;;;12.25;5.03;;;-1.40;99.90;;;;;;2113877;28;20023;-71
2022/01/07 03:17:42;;;;;;;12.75;5.00;;;-1.40;99.90;;;;;;2121647;27;20402;-72
2022/01/07 03:18:43;;;;;;;9.63;4.70;;;-1.40;99.90;;;;;;2112526;28;20805;-71
2022/01/07 03:19:43;;;;;;;11.07;4.80;;;-1.40;99.90;;;;;;2113376;28;20024;-72
2022/01/07 03:20:45;;;;;;;9.65;4.45;;;-1.40;99.90;;;;;;2113375;28;20042;-72
2022/01/07 03:21:45;;;;;;;9.15;4.22;;;-1.40;99.90;;;;;;2112903;28;20118;-73
2022/01/07 03:22:47;;;;;;;8.30;3.95;;;-1.40;99.90;;;;;;2113031;28;20031;-70
2022/01/07 03:23:48;;;;;;;10.60;4.68;;;-1.40;99.90;;;;;;2104592;28;20447;-69
2022/01/07 03:24:48;;;;;;;8.25;4.10;;;-1.40;99.90;;;;;;2104663;28;20111;-72
2022/01/07 03:25:49;;;;;;;8.23;4.18;;;-1.40;99.90;;;;;;2113490;28;20039;-74
2022/01/07 03:26:49;;;;;;;7.15;3.88;;;-1.40;99.90;;;;;;2113701;28;20028;-73
2022/01/07 03:27:50;;;;;;;6.18;3.58;;;-1.40;99.90;;;;;;2113614;28;20047;-71
2022/01/07 03:28:51;;;;;;;6.95;3.45;;;-1.40;99.90;;;;;;2112500;28;20019;-71
2022/01/07 03:29:51;;;;;;;9.55;3.65;;;-1.40;99.90;;;;;;2104536;28;20024;-73
2022/01/07 03:30:52;;;;;;;7.00;3.67;;;-1.40;99.90;;;;;;2096271;28;20028;-71
2022/01/07 03:31:52;;;;;;;7.60;3.90;;;-1.40;99.90;;;;;;2104340;28;20138;-72
2022/01/07 03:32:53;;;;;;;5.88;3.63;;;-1.40;99.90;;;;;;2113134;28;20030;-71
2022/01/07 03:33:54;;;;;;;7.15;3.75;;;-1.40;99.90;;;;;;2113059;28;20119;-72
2022/01/07 03:34:54;;;;;;;7.53;3.67;;;-1.50;99.90;;;;;;2104744;28;20533;-73
2022/01/07 03:35:55;;;;;;;8.73;3.55;;;-1.40;99.90;;;;;;2104668;28;20373;-73
2022/01/07 03:36:55;;;;;;;6.25;3.53;;;-1.50;99.90;;;;;;2113115;28;20019;-71
2022/01/07 03:37:56;;;;;;;5.95;3.33;;;-1.50;99.90;;;;;;2113643;28;20038;-73
2022/01/07 03:39:00;;;;;;;6.75;3.58;;;-1.50;99.90;;;;;;2112496;28;20020;-71
2022/01/07 03:40:00;;;;;;;7.00;3.50;;;-1.50;99.90;;;;;;2112883;28;20023;-72
2022/01/07 03:41:02;;;;;;;7.60;3.78;;;-1.50;99.90;;;;;;2113612;28;20068;-71
2022/01/07 03:42:03;;;;;;;5.60;3.38;;;-1.50;99.90;;;;;;2113345;28;20037;-71
2022/01/07 03:43:04;;;;;;;6.30;3.30;;;-1.50;99.90;;;;;;2121545;28;20546;-72
2022/01/07 03:44:05;;;;;;;5.90;3.72;;;-1.50;99.90;;;;;;2121482;27;20067;-70
2022/01/07 03:45:06;;;;;;;6.78;3.63;;;-1.50;99.90;;;;;;2112996;28;20082;-72
2022/01/07 03:46:07;;;;;;;5.47;3.20;;;-1.50;99.90;;;;;;2112958;28;20059;-73
2022/01/07 03:47:08;;;;;;;7.53;3.50;;;-1.50;99.90;;;;;;2113533;28;20436;-70
2022/01/07 03:48:08;;;;;;;7.25;3.58;;;-1.50;99.90;;;;;;2112948;28;20035;-71
2022/01/07 03:49:09;;;;;;;5.82;3.60;;;-1.50;99.90;;;;;;2104133;28;20439;-72
2022/01/07 03:50:13;;;;;;;6.97;3.45;;;-1.50;99.90;;;;;;2113012;28;20136;-73
2022/01/07 03:51:14;;;;;;;6.88;3.40;;;-1.50;99.90;;;;;;2121382;28;20118;-71
2022/01/07 03:52:15;;;;;;;7.03;3.47;;;-1.50;99.90;;;;;;2112536;28;20032;-71
2022/01/07 03:53:15;;;;;;;6.18;3.35;;;-1.50;99.90;;;;;;2112698;28;20043;-72
2022/01/07 03:54:16;;;;;;;6.10;3.30;;;-1.50;99.90;;;;;;2113002;28;20035;-73
2022/01/07 03:55:19;;;;;;;7.22;3.60;;;-1.50;99.90;;;;;;2113570;28;20039;-71
2022/01/07 03:56:20;;;;;;;8.82;3.80;;;-1.50;99.90;;;;;;2113404;28;20119;-73
2022/01/07 03:57:21;;;;;;;8.35;3.58;;;-1.50;99.90;;;;;;2113606;28;20088;-73
2022/01/07 03:58:22;;;;;;;8.95;3.83;;;-1.50;99.90;;;;;;2113562;28;20487;-70
2022/01/07 03:59:22;;;;;;;9.20;4.47;;;-1.50;99.90;;;;;;2120891;28;20031;-71
2022/01/07 04:00:26;;;;;;;8.65;4.35;;;-1.50;99.90;;;;;;2123289;28;20115;-70
2022/01/07 04:01:27;;;;;;;9.23;4.00;;;-1.40;99.90;;;;;;2114638;28;20035;-71
2022/01/07 04:02:27;;;;;;;7.47;3.92;;;-1.40;99.90;;;;;;2113879;28;20074;-70
2022/01/07 04:03:29;;;;;;;9.45;4.05;;;-1.40;99.90;;;;;;2113074;28;20028;-71
2022/01/07 04:04:30;;;;;;;10.45;4.25;;;-1.40;99.90;;;;;;2113043;28;20067;-71
2022/01/07 04:05:30;;;;;;;8.80;3.95;;;-1.30;99.90;;;;;;2113198;28;20054;-70
2022/01/07 04:06:31;;;;;;;8.65;4.10;;;-1.30;99.90;;;;;;2104644;28;20035;-69
2022/01/07 04:07:32;;;;;;;7.95;3.63;;;-1.30;99.90;;;;;;2113158;28;20016;-72
2022/01/07 04:08:33;;;;;;;7.97;3.80;;;-1.30;99.90;;;;;;2113033;28;20062;-70
2022/01/07 04:09:36;;;;;;;7.50;4.05;;;-1.30;99.90;;;;;;2096571;28;20020;-70
2022/01/07 04:10:42;;;;;;;9.68;4.53;;;-1.30;99.90;;;;;;2105612;28;20059;-71
2022/01/07 04:11:42;;;;;;;10.80;4.80;;;-1.30;99.90;;;;;;2121547;28;20024;-72
2022/01/07 04:12:43;;;;;;;12.13;4.40;;;-1.30;99.90;;;;;;2121797;28;20076;-71
2022/01/07 04:13:44;;;;;;;14.00;4.75;;;-1.30;99.90;;;;;;2113785;28;20024;-71
2022/01/07 04:14:46;;;;;;;10.50;4.75;;;-1.30;99.90;;;;;;2113523;28;20024;-71
2022/01/07 04:15:46;;;;;;;11.15;4.78;;;-1.30;99.90;;;;;;2114119;28;20092;-71
2022/01/07 04:16:47;;;;;;;10.10;4.50;;;-1.30;99.90;;;;;;2114651;28;20497;-72
2022/01/07 04:17:50;;;;;;;9.48;4.60;;;-1.30;99.90;;;;;;2114741;28;20023;-71
2022/01/07 04:18:51;;;;;;;10.18;4.80;;;-1.30;99.90;;;;;;2115285;28;20116;-71
2022/01/07 04:19:51;;;;;;;9.68;4.38;;;-1.30;99.90;;;;;;2115746;28;20016;-69
2022/01/07 04:20:52;;;;;;;7.13;4.20;;;-1.30;99.90;;;;;;2116065;28;20035;-70
2022/01/07 04:21:52;;;;;;;10.20;4.60;;;-1.30;99.90;;;;;;2123797;27;20557;-70
2022/01/07 04:22:54;;;;;;;10.63;4.82;;;-1.30;99.90;;;;;;2107332;28;20472;-71
2022/01/07 04:23:54;;;;;;;10.30;4.85;;;-1.30;99.90;;;;;;2107050;28;20414;-73
2022/01/07 04:24:55;;;;;;;9.73;4.75;;;-1.30;99.90;;;;;;2116502;28;20115;-72
2022/01/07 04:25:55;;;;;;;15.15;5.07;;;-1.30;99.90;;;;;;2114861;28;20027;-71
2022/01/07 04:26:56;;;;;;;13.55;5.53;;;-1.30;99.90;;;;;;2114940;28;20032;-71
2022/01/07 04:27:59;;;;;;;10.88;4.90;;;-1.30;99.90;;;;;;2123323;27;20078;-70
2022/01/07 04:29:00;;;;;;;10.75;5.28;;;-1.30;99.90;;;;;;2113892;28;20383;-70
2022/01/07 04:30:01;;;;;;;13.98;5.38;;;-1.30;99.90;;;;;;2114433;28;20027;-71
2022/01/07 04:31:02;;;;;;;11.93;5.10;;;-1.30;99.90;;;;;;2114501;28;20168;-70
2022/01/07 04:32:05;;;;;;;11.57;5.28;;;-1.30;99.90;;;;;;2114240;28;20092;-72
2022/01/07 04:33:06;;;;;;;11.25;5.00;;;-1.30;99.90;;;;;;2114597;28;20049;-71
2022/01/07 04:34:07;;;;;;;13.57;5.15;;;-1.40;99.90;;;;;;2114634;28;20027;-70
2022/01/07 04:35:08;;;;;;;8.20;4.90;;;-1.30;99.90;;;;;;2114528;28;20423;-71
2022/01/07 04:36:09;;;;;;;10.63;5.30;;;-1.40;99.90;;;;;;2114464;27;20065;-71
2022/01/07 04:37:10;;;;;;;12.38;5.20;;;-1.40;99.90;;;;;;2106003;28;20040;-71
2022/01/07 04:38:11;;;;;;;13.23;4.82;;;-1.40;99.90;;;;;;2106102;28;20410;-70
2022/01/07 04:39:11;;;;;;;11.32;5.38;;;-1.40;99.90;;;;;;2114379;28;20101;-72
2022/01/07 04:40:13;;;;;;;9.93;4.35;;;-1.40;99.90;;;;;;2122944;27;20081;-70
2022/01/07 04:41:14;;;;;;;10.55;4.95;;;-1.40;99.90;;;;;;2122751;27;20034;-70
2022/01/07 04:42:15;;;;;;;10.77;4.93;;;-1.40;99.90;;;;;;2114074;28;20043;-71
2022/01/07 04:43:16;;;;;;;12.43;5.00;;;-1.40;99.90;;;;;;2114548;28;20055;-72
2022/01/07 04:44:19;;;;;;;8.63;4.68;;;-1.40;99.90;;;;;;2115154;28;20027;-70
2022/01/07 04:45:19;;;;;;;10.18;4.88;;;-1.40;99.90;;;;;;2114460;28;20028;-73
2022/01/07 04:46:20;;;;;;;12.50;5.03;;;-1.40;99.90;;;;;;2114355;28;20820;-73
2022/01/07 04:47:21;;;;;;;12.95;5.50;;;-1.40;99.90;;;;;;2114916;28;20093;-70
2022/01/07 04:48:21;;;;;;;11.68;5.38;;;-1.40;99.90;;;;;;2114757;28;20103;-71
2022/01/07 04:49:22;;;;;;;14.15;5.80;;;-1.40;99.90;;;;;;2122304;27;20099;-71
2022/01/07 04:50:23;;;;;;;10.30;5.22;;;-1.40;99.90;;;;;;2114400;28;20161;-70
2022/01/07 04:51:24;;;;;;;11.77;5.55;;;-1.40;99.90;;;;;;2114273;28;20495;-72
2022/01/07 04:52:24;;;;;;;10.60;5.28;;;-1.40;99.90;;;;;;2114948;28;20028;-72
2022/01/07 04:53:26;;;;;;;10.38;5.00;;;-1.40;99.90;;;;;;2114889;28;20027;-71
2022/01/07 04:54:27;;;;;;;14.85;5.50;;;-1.40;99.90;;;;;;2115119;28;20039;-71
2022/01/07 04:55:35;;;;;;;11.70;5.72;;;-1.40;99.90;;;;;;2114946;28;20061;-70
2022/01/07 04:56:36;;;;;;;10.82;5.70;;;-1.30;99.90;;;;;;2115138;28;20030;-71
2022/01/07 04:57:37;;;;;;;12.85;5.72;;;-1.30;99.90;;;;;;2115208;28;20038;-71
2022/01/07 04:58:37;;;;;;;13.75;5.45;;;-1.30;99.90;;;;;;2114688;28;20780;-71
2022/01/07 04:59:38;;;;;;;12.30;5.47;;;-1.30;99.90;;;;;;2115268;28;20070;-71
2022/01/07 05:00:41;;;;;;;11.63;5.63;;;-1.30;99.90;;;;;;2115166;28;20059;-72
2022/01/07 05:01:42;;;;;;;12.73;5.57;;;-1.30;99.90;;;;;;2114308;28;20372;-72
2022/01/07 05:02:43;;;;;;;9.02;5.20;;;-1.40;99.90;;;;;;2114538;28;20043;-70
2022/01/07 05:03:43;;;;;;;13.00;6.07;;;-1.40;99.90;;;;;;2114375;28;20119;-73
2022/01/07 05:04:44;;;;;;;10.90;5.50;;;-1.40;99.90;;;;;;2114920;28;20039;-70
2022/01/07 05:05:49;;;;;;;11.85;5.82;;;-1.40;99.90;;;;;;2114823;28;20035;-72
2022/01/07 05:06:49;;;;;;;12.85;6.07;;;-1.40;99.90;;;;;;2114872;28;20066;-71
2022/01/07 05:07:50;;;;;;;11.40;5.70;;;-1.40;99.90;;;;;;2114715;28;20024;-71
2022/01/07 05:08:51;;;;;;;10.85;5.90;;;-1.40;99.90;;;;;;2114275;28;20742;-72
2022/01/07 05:09:51;;;;;;;11.68;6.00;;;-1.40;99.90;;;;;;2114779;28;20411;-71
2022/01/07 05:10:52;;;;;;;11.15;5.50;;;-1.40;99.90;;;;;;2114804;28;20031;-71
2022/01/07 05:11:53;;;;;;;11.60;5.68;;;-1.40;99.90;;;;;;2114354;28;20036;-72
2022/01/07 05:12:54;;;;;;;12.07;5.43;;;-1.40;99.90;;;;;;2114727;28;20439;-70
2022/01/07 05:13:55;;;;;;;12.48;5.78;;;-1.40;99.90;;;;;;2114719;28;20066;-71
2022/01/07 05:14:55;;;;;;;11.15;5.55;;;-1.40;99.90;;;;;;2114752;28;20080;-69
2022/01/07 05:15:56;;;;;;;14.30;5.47;;;-1.40;99.90;;;;;;2114858;28;20020;-70
2022/01/07 05:16:57;;;;;;;11.63;5.90;;;-1.40;99.90;;;;;;2122681;27;20050;-72